Time;durP1;ratioP1;P1;durP2;ratioP2;P2;SDS_P1;SDS_P2;PMS_P1;PMS_P2;Temp;Humidity;BMP_temperature;BMP_pressure;BME280_temperature;BME280_humidity;BME280_pressure;Samples;Min_cycle;Max_cycle;Signal;HPM_P1;HPM_P2
2021/10/14 00:01:17;;;;;;;106.50;101.20;;;11.50;99.90;;;;;;4346001;32;20212;-65
2021/10/14 00:03:44;;;;;;;110.67;105.00;;;11.60;99.90;;;;;;4346969;33;20176;-66
2021/10/14 00:06:11;;;;;;;106.43;100.63;;;11.60;99.90;;;;;;4335817;33;20710;-65
2021/10/14 00:08:38;;;;;;;102.33;96.93;;;11.60;99.90;;;;;;4345957;33;20530;-66
2021/10/14 00:11:07;;;;;;;101.70;96.77;;;11.50;99.90;;;;;;4347357;33;20193;-65
2021/10/14 00:13:36;;;;;;;109.57;103.80;;;11.60;99.90;;;;;;4346472;33;20172;-66
2021/10/14 00:16:03;;;;;;;112.90;107.03;;;11.60;99.90;;;;;;4346528;33;20172;-65
2021/10/14 00:18:31;;;;;;;116.67;110.83;;;11.60;99.90;;;;;;4341955;33;20525;-66
2021/10/14 00:20:58;;;;;;;104.07;99.17;;;11.70;99.90;;;;;;4347948;33;20234;-66
2021/10/14 00:23:26;;;;;;;95.63;90.73;;;11.70;99.90;;;;;;4348382;33;20205;-65
2021/10/14 00:25:53;;;;;;;107.13;101.70;;;11.60;99.90;;;;;;4347153;33;20543;-65
2021/10/14 00:28:19;;;;;;;109.67;104.00;;;11.60;99.90;;;;;;4347850;33;20176;-66
2021/10/14 00:30:46;;;;;;;93.10;88.20;;;11.60;99.90;;;;;;4347994;33;20569;-65
2021/10/14 00:33:13;;;;;;;96.67;91.73;;;11.70;99.90;;;;;;4345923;33;20175;-65
2021/10/14 00:35:41;;;;;;;103.80;98.30;;;11.70;99.90;;;;;;4345131;33;20169;-65
2021/10/14 00:38:08;;;;;;;91.93;87.03;;;11.70;99.90;;;;;;4347788;33;20157;-65
2021/10/14 00:40:35;;;;;;;92.37;87.47;;;11.70;99.90;;;;;;4348255;33;20204;-65
2021/10/14 00:43:02;;;;;;;86.23;81.70;;;11.70;99.90;;;;;;4346634;33;20179;-65
2021/10/14 00:45:29;;;;;;;92.50;87.27;;;11.80;99.90;;;;;;4346110;33;20552;-65
2021/10/14 00:47:56;;;;;;;82.70;78.50;;;11.80;99.90;;;;;;4346093;33;20209;-66
2021/10/14 00:50:23;;;;;;;85.20;80.37;;;11.80;99.90;;;;;;4347082;33;20196;-65
2021/10/14 00:52:52;;;;;;;88.30;83.20;;;11.80;99.90;;;;;;4346246;33;20209;-65
2021/10/14 00:55:20;;;;;;;89.43;84.50;;;11.80;99.90;;;;;;4345076;33;20525;-65
2021/10/14 00:57:48;;;;;;;85.13;80.33;;;11.80;99.90;;;;;;4337777;33;20184;-66
2021/10/14 01:00:15;;;;;;;87.90;83.00;;;11.80;99.90;;;;;;4334521;33;20263;-65
2021/10/14 01:02:45;;;;;;;85.63;80.83;;;11.90;99.90;;;;;;4342602;33;20179;-65
2021/10/14 01:05:12;;;;;;;76.90;72.23;;;11.90;99.90;;;;;;4333418;33;20599;-65
2021/10/14 01:07:39;;;;;;;77.00;72.70;;;12.00;99.90;;;;;;4337986;33;20184;-66
2021/10/14 01:10:09;;;;;;;77.33;72.97;;;11.90;99.90;;;;;;4347781;33;20434;-65
2021/10/14 01:12:38;;;;;;;81.67;76.57;;;12.00;99.90;;;;;;4338402;33;20173;-66
2021/10/14 01:15:18;;;;;;;75.87;71.53;;;12.00;99.90;;;;;;4333114;33;20241;-65
2021/10/14 01:17:45;;;;;;;81.20;76.20;;;12.00;99.90;;;;;;4350906;32;20531;-65
2021/10/14 01:20:13;;;;;;;84.33;79.43;;;12.00;99.90;;;;;;4344823;33;20209;-65
2021/10/14 01:22:40;;;;;;;88.77;83.50;;;12.00;99.90;;;;;;4337625;33;20176;-66
2021/10/14 01:25:08;;;;;;;91.97;86.27;;;12.00;99.90;;;;;;4344249;33;20165;-66
2021/10/14 01:27:35;;;;;;;88.23;82.87;;;12.00;99.90;;;;;;4342052;33;20201;-65
2021/10/14 01:30:02;;;;;;;84.37;79.30;;;12.20;99.90;;;;;;4332512;33;20146;-66
2021/10/14 01:32:29;;;;;;;94.70;88.67;;;12.00;99.90;;;;;;4332818;33;20574;-66
2021/10/14 01:34:56;;;;;;;87.07;81.40;;;12.10;99.90;;;;;;4332967;33;20150;-65
2021/10/14 01:37:24;;;;;;;91.83;85.97;;;12.10;99.90;;;;;;4343692;33;20212;-65
2021/10/14 01:39:51;;;;;;;97.10;91.03;;;12.10;99.90;;;;;;4332946;33;20232;-66
2021/10/14 01:42:17;;;;;;;91.67;85.30;;;12.10;99.90;;;;;;4343210;33;20196;-66
2021/10/14 01:44:45;;;;;;;88.63;82.80;;;12.10;99.90;;;;;;4338653;33;20598;-65
2021/10/14 01:47:12;;;;;;;100.43;93.90;;;12.00;99.90;;;;;;4342834;33;20145;-66
2021/10/14 01:49:39;;;;;;;96.73;90.20;;;12.10;99.90;;;;;;4336048;33;20171;-66
2021/10/14 01:52:06;;;;;;;96.83;90.40;;;12.10;99.90;;;;;;4345737;33;20193;-65
2021/10/14 01:54:34;;;;;;;96.53;90.23;;;12.10;99.90;;;;;;4336086;33;20177;-65
2021/10/14 01:57:01;;;;;;;112.40;105.13;;;12.20;99.90;;;;;;4332691;33;20154;-66
2021/10/14 01:59:28;;;;;;;108.13;100.90;;;12.20;99.90;;;;;;4331401;33;20216;-65
2021/10/14 02:01:55;;;;;;;108.03;101.00;;;12.20;99.90;;;;;;4331550;33;20216;-64
2021/10/14 02:04:21;;;;;;;106.67;99.17;;;12.20;99.90;;;;;;4344638;33;20217;-66
2021/10/14 02:06:48;;;;;;;106.50;99.57;;;12.30;99.90;;;;;;4345663;33;20224;-65
2021/10/14 02:09:15;;;;;;;98.40;91.33;;;12.30;99.90;;;;;;4336215;33;20571;-65
2021/10/14 02:11:43;;;;;;;105.40;98.50;;;12.30;99.90;;;;;;4330872;33;20145;-65
2021/10/14 02:14:10;;;;;;;101.97;95.03;;;12.30;99.90;;;;;;4331294;33;20185;-65
2021/10/14 02:16:36;;;;;;;106.83;98.73;;;12.30;99.90;;;;;;4331925;33;20201;-66
2021/10/14 02:19:03;;;;;;;108.80;100.63;;;12.30;99.90;;;;;;4339634;33;20153;-66
2021/10/14 02:21:30;;;;;;;111.07;102.53;;;12.30;99.90;;;;;;4341233;33;20176;-66
2021/10/14 02:23:57;;;;;;;107.73;99.47;;;12.20;99.90;;;;;;4342681;33;20594;-66
2021/10/14 02:26:24;;;;;;;105.60;97.80;;;12.20;99.90;;;;;;4343194;33;20188;-65
2021/10/14 02:28:52;;;;;;;110.23;102.13;;;12.20;99.90;;;;;;4333362;33;20224;-65
2021/10/14 02:31:22;;;;;;;113.07;104.17;;;12.20;99.90;;;;;;4330655;33;20146;-67
2021/10/14 02:33:49;;;;;;;118.73;109.73;;;12.20;99.90;;;;;;4343848;33;20167;-65
2021/10/14 02:36:16;;;;;;;118.03;109.33;;;12.20;99.90;;;;;;4345508;33;20188;-67
2021/10/14 02:38:42;;;;;;;115.37;106.10;;;12.20;99.90;;;;;;4335377;33;20571;-65
2021/10/14 02:41:09;;;;;;;117.10;107.60;;;12.20;99.90;;;;;;4340325;33;20158;-65
2021/10/14 02:43:36;;;;;;;129.07;118.20;;;12.20;99.90;;;;;;4337705;33;20629;-65
2021/10/14 02:46:04;;;;;;;127.17;117.30;;;12.20;99.90;;;;;;4339119;33;20191;-67
2021/10/14 02:48:31;;;;;;;119.23;110.07;;;12.20;99.90;;;;;;4336000;33;20628;-65
2021/10/14 02:50:59;;;;;;;122.00;112.43;;;12.20;99.90;;;;;;4340308;33;20263;-67
2021/10/14 02:53:26;;;;;;;128.43;118.97;;;12.20;99.90;;;;;;4333877;33;20241;-66
2021/10/14 02:55:53;;;;;;;130.83;120.73;;;12.20;99.90;;;;;;4333872;33;20154;-65
2021/10/14 02:58:19;;;;;;;124.23;115.40;;;12.20;99.90;;;;;;4341178;33;20217;-65
2021/10/14 03:00:46;;;;;;;134.67;124.77;;;12.20;99.90;;;;;;4346475;33;20185;-67
2021/10/14 03:03:14;;;;;;;129.83;119.53;;;12.30;99.90;;;;;;4342302;33;20157;-65
2021/10/14 03:05:41;;;;;;;128.93;119.17;;;12.30;99.90;;;;;;4333169;33;20162;-65
2021/10/14 03:08:08;;;;;;;131.10;120.40;;;12.20;99.90;;;;;;4337211;33;20208;-65
2021/10/14 03:10:35;;;;;;;124.07;114.37;;;12.30;99.90;;;;;;4348114;33;20145;-66
2021/10/14 03:13:02;;;;;;;125.47;114.83;;;12.30;99.90;;;;;;4339673;33;20216;-65
2021/10/14 03:15:31;;;;;;;126.27;116.87;;;12.40;99.90;;;;;;4348368;33;20153;-65
2021/10/14 03:17:58;;;;;;;119.57;110.37;;;12.30;99.90;;;;;;4338695;33;20201;-65
2021/10/14 03:20:26;;;;;;;130.07;119.20;;;12.30;99.90;;;;;;4344734;33;20220;-65
2021/10/14 03:22:53;;;;;;;119.80;110.40;;;12.30;99.90;;;;;;4348530;33;20209;-65
2021/10/14 03:25:21;;;;;;;129.93;120.13;;;12.30;99.90;;;;;;4348889;33;20184;-66
2021/10/14 03:27:48;;;;;;;124.63;114.87;;;12.30;99.90;;;;;;4336431;33;20153;-65
2021/10/14 03:30:14;;;;;;;121.70;111.80;;;12.30;99.90;;;;;;4332618;33;20598;-66
2021/10/14 03:32:41;;;;;;;122.90;112.60;;;12.30;99.90;;;;;;4334730;33;20200;-65
2021/10/14 03:35:09;;;;;;;122.20;112.83;;;12.30;99.90;;;;;;4332515;33;20209;-67
2021/10/14 03:37:38;;;;;;;122.23;112.27;;;12.30;99.90;;;;;;4344322;33;20176;-65
2021/10/14 03:40:06;;;;;;;119.70;110.27;;;12.30;99.90;;;;;;4338506;32;20213;-65
2021/10/14 03:42:33;;;;;;;123.30;113.43;;;12.40;99.90;;;;;;4351158;32;20213;-65
2021/10/14 03:44:59;;;;;;;123.13;113.57;;;12.40;99.90;;;;;;4340654;33;20161;-65
2021/10/14 03:47:26;;;;;;;119.33;110.50;;;12.40;99.90;;;;;;4340856;33;20161;-66
2021/10/14 03:49:53;;;;;;;117.53;108.30;;;12.40;99.90;;;;;;4333086;33;20208;-65
2021/10/14 03:52:20;;;;;;;122.30;112.87;;;12.40;99.90;;;;;;4338629;33;20150;-65
2021/10/14 03:54:48;;;;;;;113.00;104.13;;;12.30;99.90;;;;;;4346114;33;20239;-66
2021/10/14 03:57:15;;;;;;;114.17;106.00;;;12.30;99.90;;;;;;4340831;33;20537;-65
2021/10/14 03:59:41;;;;;;;119.23;109.97;;;12.40;99.90;;;;;;4332767;33;20188;-66
2021/10/14 04:02:10;;;;;;;117.37;108.30;;;12.30;99.90;;;;;;4332880;33;20614;-65
2021/10/14 04:04:37;;;;;;;108.53;100.33;;;12.30;99.90;;;;;;4347514;33;20265;-65
2021/10/14 04:07:04;;;;;;;115.47;106.37;;;12.30;99.90;;;;;;4335159;33;20244;-65
2021/10/14 04:09:31;;;;;;;119.23;109.50;;;12.30;99.90;;;;;;4342871;33;20158;-67
2021/10/14 04:12:00;;;;;;;119.13;109.70;;;12.20;99.90;;;;;;4347172;33;20204;-66
2021/10/14 04:14:27;;;;;;;119.53;110.40;;;12.30;99.90;;;;;;4345008;33;20526;-66
2021/10/14 04:16:53;;;;;;;121.07;111.77;;;12.30;99.90;;;;;;4334068;33;20175;-66
2021/10/14 04:19:20;;;;;;;137.40;126.83;;;12.20;99.90;;;;;;4335803;33;20251;-65
2021/10/14 04:21:48;;;;;;;122.83;112.33;;;12.20;99.90;;;;;;4345056;33;20557;-65
2021/10/14 04:24:15;;;;;;;129.10;118.77;;;12.20;99.90;;;;;;4340367;33;20176;-65
2021/10/14 04:26:45;;;;;;;120.07;110.40;;;12.20;99.90;;;;;;4342905;33;20161;-67
2021/10/14 04:29:13;;;;;;;127.90;117.63;;;12.20;99.90;;;;;;4334665;33;20510;-65
2021/10/14 04:31:42;;;;;;;130.53;120.37;;;12.20;99.90;;;;;;4334719;33;20193;-66
2021/10/14 04:34:09;;;;;;;118.20;107.93;;;12.20;99.90;;;;;;4341722;33;20585;-67
2021/10/14 04:36:37;;;;;;;124.67;114.40;;;12.20;99.90;;;;;;4333854;33;20165;-66
2021/10/14 04:39:04;;;;;;;113.67;103.30;;;12.20;99.90;;;;;;4345053;33;20158;-64
2021/10/14 04:41:31;;;;;;;120.63;110.20;;;12.20;99.90;;;;;;4332736;33;20150;-65
2021/10/14 04:43:58;;;;;;;130.30;118.50;;;12.20;99.90;;;;;;4336322;33;20220;-65
2021/10/14 04:46:26;;;;;;;119.03;109.00;;;12.20;99.90;;;;;;4333193;33;20231;-66
2021/10/14 04:48:53;;;;;;;128.30;116.73;;;12.20;99.90;;;;;;4337807;33;20212;-65
2021/10/14 04:51:19;;;;;;;118.13;107.17;;;12.30;99.90;;;;;;4341588;33;20201;-67
2021/10/14 04:53:46;;;;;;;119.07;108.63;;;12.30;99.90;;;;;;4331574;33;20209;-65
2021/10/14 04:56:13;;;;;;;123.97;113.30;;;12.40;99.90;;;;;;4337373;33;20183;-66
2021/10/14 04:58:40;;;;;;;116.33;107.23;;;12.40;99.90;;;;;;4347646;33;20485;-65
2021/10/14 05:01:07;;;;;;;115.97;105.90;;;12.40;99.90;;;;;;4341911;33;20195;-66
2021/10/14 05:03:35;;;;;;;129.17;118.07;;;12.40;99.90;;;;;;4337817;33;20175;-67
2021/10/14 05:06:04;;;;;;;117.07;106.90;;;12.30;99.90;;;;;;4339660;33;20180;-66
2021/10/14 05:08:31;;;;;;;126.60;115.83;;;12.30;99.90;;;;;;4337109;33;20165;-65
2021/10/14 05:10:58;;;;;;;127.53;116.80;;;12.30;99.90;;;;;;4338856;33;20179;-65
2021/10/14 05:13:24;;;;;;;132.13;121.53;;;12.40;99.90;;;;;;4339055;33;20534;-66
2021/10/14 05:15:52;;;;;;;118.80;108.97;;;12.40;99.90;;;;;;4339587;33;20239;-66
2021/10/14 05:18:18;;;;;;;121.90;111.30;;;12.40;99.90;;;;;;4342392;33;20161;-65
2021/10/14 05:20:46;;;;;;;121.20;111.67;;;12.40;99.90;;;;;;4338032;33;20598;-66
2021/10/14 05:23:13;;;;;;;119.93;109.77;;;12.40;99.90;;;;;;4337210;33;20177;-65
2021/10/14 05:25:41;;;;;;;114.80;105.87;;;12.40;99.90;;;;;;4335960;33;20172;-64
2021/10/14 05:28:07;;;;;;;133.50;121.53;;;12.40;99.90;;;;;;4336311;33;20610;-65
2021/10/14 05:30:34;;;;;;;128.03;117.97;;;12.40;99.90;;;;;;4336935;33;20169;-66
2021/10/14 05:33:01;;;;;;;115.63;106.17;;;12.40;99.90;;;;;;4338311;33;20195;-65
2021/10/14 05:35:28;;;;;;;122.50;112.30;;;12.40;99.90;;;;;;4337949;33;20180;-67
2021/10/14 05:37:56;;;;;;;126.90;115.60;;;12.50;99.90;;;;;;4336728;33;20165;-67
2021/10/14 05:40:23;;;;;;;125.33;114.73;;;12.50;99.90;;;;;;4336130;33;20532;-66
2021/10/14 05:42:50;;;;;;;123.00;112.63;;;12.40;99.90;;;;;;4334103;33;20236;-66
2021/10/14 05:45:17;;;;;;;118.97;108.57;;;12.40;99.90;;;;;;4339842;33;20223;-66
2021/10/14 05:48:08;;;;;;;;;;;;;;;;;;;;;
2021/10/14 05:50:35;;;;;;;117.43;106.47;;;12.50;99.90;;;;;;4334708;33;20173;-66
2021/10/14 05:53:03;;;;;;;120.23;109.30;;;12.50;99.90;;;;;;4338231;33;20161;-67
2021/10/14 05:55:30;;;;;;;117.13;106.53;;;12.50;99.90;;;;;;4337588;33;20153;-65
2021/10/14 05:57:57;;;;;;;115.97;106.13;;;12.50;99.90;;;;;;4334959;33;20260;-66
2021/10/14 06:00:25;;;;;;;117.30;107.13;;;12.50;99.90;;;;;;4339970;33;20517;-65
2021/10/14 06:02:52;;;;;;;121.43;110.70;;;12.60;99.90;;;;;;4337097;33;20173;-67
2021/10/14 06:05:19;;;;;;;117.40;107.40;;;12.60;99.90;;;;;;4338815;33;20168;-66
2021/10/14 06:07:47;;;;;;;120.50;110.27;;;12.70;99.90;;;;;;4340840;33;20477;-65
2021/10/14 06:10:15;;;;;;;114.87;104.20;;;12.70;99.90;;;;;;4338246;33;20176;-67
2021/10/14 06:12:42;;;;;;;113.50;104.40;;;12.70;99.90;;;;;;4334774;33;20217;-67
2021/10/14 06:15:10;;;;;;;108.90;99.67;;;12.70;99.90;;;;;;4340725;33;20191;-67
2021/10/14 06:17:36;;;;;;;118.63;108.60;;;12.70;99.90;;;;;;4343354;33;20145;-66
2021/10/14 06:20:04;;;;;;;111.70;102.57;;;12.70;99.90;;;;;;4342347;33;20221;-65
2021/10/14 06:22:31;;;;;;;115.10;105.73;;;12.70;99.90;;;;;;4340628;33;20181;-64
2021/10/14 06:24:58;;;;;;;115.37;104.83;;;12.70;99.90;;;;;;4340891;33;20149;-65
2021/10/14 06:27:28;;;;;;;113.73;104.57;;;12.80;99.90;;;;;;4341056;33;20177;-64
2021/10/14 06:29:58;;;;;;;115.70;106.30;;;12.80;99.90;;;;;;4340356;33;20179;-63
2021/10/14 06:32:25;;;;;;;113.50;103.87;;;12.80;99.90;;;;;;4341216;33;20193;-64
2021/10/14 06:34:52;;;;;;;114.33;104.40;;;12.80;99.90;;;;;;4341855;33;20176;-66
2021/10/14 06:37:19;;;;;;;120.77;110.03;;;12.90;99.90;;;;;;4339266;33;20172;-65
2021/10/14 06:39:46;;;;;;;114.23;103.90;;;12.80;99.90;;;;;;4340387;33;20172;-65
2021/10/14 06:42:16;;;;;;;112.13;101.63;;;12.80;99.90;;;;;;4341687;33;20224;-64
2021/10/14 06:44:44;;;;;;;115.40;104.93;;;12.80;99.90;;;;;;4342373;33;20149;-65
2021/10/14 06:47:11;;;;;;;117.13;106.97;;;12.80;99.90;;;;;;4340673;33;20228;-64
2021/10/14 06:49:38;;;;;;;110.07;99.73;;;12.80;99.90;;;;;;4342881;33;20594;-64
2021/10/14 06:52:05;;;;;;;106.10;97.03;;;12.80;99.90;;;;;;4340170;33;20479;-65
2021/10/14 06:54:32;;;;;;;113.83;104.23;;;12.90;99.90;;;;;;4339204;33;20189;-64
2021/10/14 06:57:02;;;;;;;117.70;107.43;;;12.90;99.90;;;;;;4340618;33;20596;-64
2021/10/14 06:59:29;;;;;;;115.43;105.07;;;12.90;99.90;;;;;;4340342;33;20146;-65
2021/10/14 07:01:57;;;;;;;124.43;112.93;;;12.90;99.90;;;;;;4339079;33;20180;-65
2021/10/14 07:04:24;;;;;;;121.80;111.33;;;12.80;99.90;;;;;;4340553;33;20672;-63
2021/10/14 07:06:54;;;;;;;114.13;103.43;;;12.90;99.90;;;;;;4338933;33;20505;-64
2021/10/14 07:09:21;;;;;;;111.00;100.73;;;12.90;99.90;;;;;;4342691;33;20172;-64
2021/10/14 07:11:55;;;;;;;123.23;112.83;;;12.90;99.90;;;;;;4342391;33;20193;-64
2021/10/14 07:14:25;;;;;;;118.13;107.83;;;12.90;99.90;;;;;;4342045;33;20589;-64
2021/10/14 07:16:52;;;;;;;121.47;111.53;;;13.00;99.90;;;;;;4348906;33;20188;-64
2021/10/14 07:19:20;;;;;;;111.80;103.03;;;13.00;99.90;;;;;;4349505;33;20133;-64
2021/10/14 07:21:47;;;;;;;123.20;112.80;;;13.00;99.90;;;;;;4349232;33;20141;-64
2021/10/14 07:24:16;;;;;;;111.13;101.77;;;13.00;99.90;;;;;;4348297;33;20608;-64
2021/10/14 07:26:48;;;;;;;113.27;104.07;;;13.00;99.90;;;;;;4348197;33;20184;-64
2021/10/14 07:29:15;;;;;;;114.33;103.93;;;13.00;99.90;;;;;;4347702;33;20145;-63
2021/10/14 07:31:42;;;;;;;117.17;107.10;;;13.00;99.90;;;;;;4348820;33;20161;-64
2021/10/14 07:34:09;;;;;;;113.73;103.37;;;13.00;99.90;;;;;;4347481;33;20183;-64
2021/10/14 07:36:37;;;;;;;112.30;103.00;;;13.10;99.90;;;;;;4348093;33;20146;-63
2021/10/14 07:39:04;;;;;;;114.27;105.00;;;13.10;99.90;;;;;;4347535;33;20153;-64
2021/10/14 07:41:31;;;;;;;112.20;103.03;;;13.10;99.90;;;;;;4347408;33;20566;-64
2021/10/14 07:44:00;;;;;;;112.77;103.37;;;13.10;99.90;;;;;;4349184;33;20184;-64
2021/10/14 07:46:27;;;;;;;108.30;98.50;;;13.10;99.90;;;;;;4347973;33;20180;-64
2021/10/14 07:48:54;;;;;;;112.13;102.87;;;13.20;99.90;;;;;;4348737;33;20145;-64
2021/10/14 07:51:21;;;;;;;102.40;93.20;;;13.20;99.90;;;;;;4347149;33;20187;-63
2021/10/14 07:53:49;;;;;;;101.93;93.67;;;13.20;99.90;;;;;;4349081;33;20615;-64
2021/10/14 07:56:16;;;;;;;104.83;96.43;;;13.30;99.90;;;;;;4348843;33;20150;-64
2021/10/14 07:58:45;;;;;;;106.83;99.07;;;13.40;99.90;;;;;;4348910;33;20160;-64
2021/10/14 08:01:12;;;;;;;96.40;88.73;;;13.40;99.90;;;;;;4347213;33;20138;-63
2021/10/14 08:03:39;;;;;;;102.63;94.83;;;13.40;99.90;;;;;;4348936;33;20201;-64
2021/10/14 08:06:06;;;;;;;99.20;91.63;;;13.50;99.90;;;;;;4348525;33;20439;-64
2021/10/14 08:08:33;;;;;;;96.47;89.00;;;13.50;99.90;;;;;;4348753;33;20558;-63
2021/10/14 08:11:01;;;;;;;96.37;88.53;;;13.60;99.90;;;;;;4347197;33;20145;-64
2021/10/14 08:13:28;;;;;;;93.80;86.23;;;13.60;99.90;;;;;;4346987;33;20546;-64
2021/10/14 08:15:54;;;;;;;93.07;85.83;;;13.60;99.90;;;;;;4347117;33;20157;-64
2021/10/14 08:18:23;;;;;;;90.93;83.47;;;13.70;99.90;;;;;;4347022;33;20149;-64
2021/10/14 08:20:53;;;;;;;94.47;87.43;;;13.70;99.90;;;;;;4348423;33;20138;-64
2021/10/14 08:23:20;;;;;;;85.03;78.70;;;13.70;99.90;;;;;;4346980;33;20198;-63
2021/10/14 08:25:47;;;;;;;87.13;80.13;;;13.70;99.90;;;;;;4346843;33;20192;-64
2021/10/14 08:28:16;;;;;;;84.73;78.43;;;13.70;99.90;;;;;;4346645;33;20502;-63
2021/10/14 08:30:44;;;;;;;84.03;77.67;;;13.70;99.90;;;;;;4348584;33;20562;-64
2021/10/14 08:33:11;;;;;;;82.47;75.97;;;13.80;99.90;;;;;;4346675;33;20149;-63
2021/10/14 08:35:38;;;;;;;80.83;74.17;;;13.80;99.90;;;;;;4347168;33;20196;-64
2021/10/14 08:38:06;;;;;;;79.37;72.87;;;13.90;99.90;;;;;;4347952;33;20160;-64
2021/10/14 08:40:33;;;;;;;84.60;78.00;;;14.10;99.90;;;;;;4347553;33;20160;-64
2021/10/14 08:43:02;;;;;;;80.00;73.90;;;14.40;99.90;;;;;;4346666;33;20179;-64
2021/10/14 08:45:35;;;;;;;76.23;70.23;;;14.60;99.90;;;;;;4346800;33;20166;-64
2021/10/14 08:48:03;;;;;;;79.13;73.33;;;14.80;99.90;;;;;;4348305;33;20144;-64
2021/10/14 08:50:30;;;;;;;81.43;75.30;;;14.80;99.90;;;;;;4348328;33;20185;-63
2021/10/14 08:52:57;;;;;;;80.77;74.47;;;14.60;99.90;;;;;;4348148;33;20160;-64
2021/10/14 08:55:24;;;;;;;76.03;70.70;;;14.50;99.90;;;;;;4348264;33;20141;-64
2021/10/14 08:57:50;;;;;;;83.07;76.97;;;14.40;99.90;;;;;;4346559;33;20159;-64
2021/10/14 09:00:17;;;;;;;75.30;70.00;;;14.30;99.90;;;;;;4348058;33;20556;-64
2021/10/14 09:02:46;;;;;;;86.93;80.93;;;14.20;99.90;;;;;;4346471;33;20474;-63
2021/10/14 09:05:14;;;;;;;78.03;72.23;;;14.20;99.90;;;;;;4346346;33;20175;-63
2021/10/14 09:07:41;;;;;;;74.30;68.83;;;14.20;99.90;;;;;;4348045;33;20159;-63
2021/10/14 09:10:12;;;;;;;82.77;76.93;;;14.20;99.90;;;;;;4346210;33;20244;-63
2021/10/14 09:12:41;;;;;;;76.93;71.00;;;14.10;99.90;;;;;;4347194;33;20147;-63
2021/10/14 09:15:14;;;;;;;83.10;77.03;;;14.10;99.90;;;;;;4347945;33;20180;-64
2021/10/14 09:17:48;;;;;;;83.93;77.50;;;14.30;99.90;;;;;;4347885;33;20157;-63
2021/10/14 09:20:39;;;;;;;77.53;71.93;;;14.40;99.90;;;;;;4346035;33;20226;-64
2021/10/14 09:23:10;;;;;;;75.03;69.67;;;14.50;99.90;;;;;;4347765;33;20148;-64
2021/10/14 09:25:39;;;;;;;76.13;70.33;;;14.60;99.90;;;;;;4347785;33;20145;-63
2021/10/14 09:28:18;;;;;;;72.60;67.70;;;14.70;99.90;;;;;;4345883;33;20157;-63
2021/10/14 09:30:48;;;;;;;78.90;73.17;;;14.90;99.90;;;;;;4347775;33;20180;-63
2021/10/14 09:33:36;;;;;;;80.63;75.13;;;14.90;99.90;;;;;;4347185;33;20161;-64
2021/10/14 09:36:20;;;;;;;77.03;71.03;;;15.00;99.90;;;;;;4346907;33;20213;-63
2021/10/14 09:38:51;;;;;;;76.00;70.43;;;15.20;99.90;;;;;;4345994;33;20220;-63
2021/10/14 09:41:20;;;;;;;72.17;67.17;;;15.30;99.90;;;;;;4345858;33;20176;-63
2021/10/14 09:43:50;;;;;;;75.07;69.20;;;15.60;99.90;;;;;;4347581;33;20145;-64
2021/10/14 09:46:36;;;;;;;69.77;64.83;;;15.80;99.90;;;;;;4347613;33;20574;-63
2021/10/14 09:49:06;;;;;;;61.87;57.47;;;16.00;99.90;;;;;;4346083;33;20141;-64
2021/10/14 09:51:33;;;;;;;61.63;57.13;;;16.00;99.90;;;;;;4347309;33;20164;-63
2021/10/14 09:54:00;;;;;;;65.17;60.47;;;16.10;99.90;;;;;;4347068;33;20584;-63
2021/10/14 09:56:28;;;;;;;65.70;60.97;;;16.20;99.90;;;;;;4345779;33;20176;-63
2021/10/14 09:58:56;;;;;;;59.20;55.17;;;16.50;99.90;;;;;;4346580;33;20562;-64
2021/10/14 10:01:24;;;;;;;59.67;55.50;;;16.70;99.90;;;;;;4345728;33;20157;-63
2021/10/14 10:03:52;;;;;;;55.90;52.00;;;16.70;99.90;;;;;;4347333;33;20163;-64
2021/10/14 10:06:25;;;;;;;60.27;55.90;;;16.50;99.90;;;;;;4346068;33;20562;-64
2021/10/14 10:08:53;;;;;;;65.27;60.67;;;16.00;99.90;;;;;;4345721;33;20464;-64
2021/10/14 10:11:22;;;;;;;62.70;58.37;;;15.70;99.90;;;;;;4345529;33;20224;-63
2021/10/14 10:13:52;;;;;;;59.77;55.47;;;15.70;99.90;;;;;;4346364;33;20163;-64
2021/10/14 10:16:21;;;;;;;63.23;58.47;;;15.70;99.90;;;;;;4347324;33;20133;-64
2021/10/14 10:18:49;;;;;;;63.27;58.83;;;15.70;99.90;;;;;;4345633;33;20180;-63
2021/10/14 10:21:42;;;;;;;64.17;59.43;;;15.50;99.90;;;;;;4347107;33;20221;-64
2021/10/14 10:24:34;;;;;;;61.67;57.27;;;15.30;99.90;;;;;;4345639;33;20578;-64
2021/10/14 10:27:06;;;;;;;59.40;55.13;;;15.40;99.90;;;;;;4346467;33;20489;-63
2021/10/14 10:29:47;;;;;;;59.27;55.27;;;15.70;99.90;;;;;;4347203;33;20164;-63
2021/10/14 10:32:17;;;;;;;57.70;53.80;;;15.80;99.90;;;;;;4346360;33;20160;-64
2021/10/14 10:34:57;;;;;;;58.97;54.83;;;16.10;99.90;;;;;;4345688;33;20204;-64
2021/10/14 10:37:41;;;;;;;55.47;51.87;;;16.20;99.90;;;;;;4347187;33;20141;-64
2021/10/14 10:40:17;;;;;;;57.60;53.90;;;16.10;99.90;;;;;;4347112;33;20192;-64
2021/10/14 10:42:48;;;;;;;59.10;55.00;;;16.00;99.90;;;;;;4345647;33;20477;-63
2021/10/14 10:45:17;;;;;;;63.10;58.53;;;16.00;99.90;;;;;;4346063;33;20164;-63
2021/10/14 10:47:49;;;;;;;58.50;54.30;;;15.80;99.90;;;;;;4346801;33;20150;-64
2021/10/14 10:50:21;;;;;;;56.57;52.43;;;15.60;99.90;;;;;;4347088;33;20546;-64
2021/10/14 10:53:01;;;;;;;57.53;53.57;;;15.80;99.90;;;;;;4347142;33;20153;-63
2021/10/14 10:55:43;;;;;;;57.43;53.27;;;16.00;99.90;;;;;;4345545;33;20153;-64
2021/10/14 10:58:11;;;;;;;56.10;52.40;;;16.30;99.90;;;;;;4345349;33;20164;-63
2021/10/14 11:00:40;;;;;;;52.83;49.33;;;16.50;99.90;;;;;;4347022;33;20179;-63
2021/10/14 11:03:13;;;;;;;57.00;53.30;;;16.40;99.90;;;;;;4348937;33;20613;-63
2021/10/14 11:05:45;;;;;;;53.97;50.43;;;16.20;99.90;;;;;;4348130;33;20568;-63
2021/10/14 11:08:21;;;;;;;56.60;53.10;;;16.30;99.90;;;;;;4349536;33;20459;-63
2021/10/14 11:10:50;;;;;;;51.77;48.17;;;16.50;99.90;;;;;;4349011;33;20500;-64
2021/10/14 11:13:18;;;;;;;53.97;50.67;;;16.40;99.90;;;;;;4347755;33;20153;-64
2021/10/14 11:15:51;;;;;;;59.00;55.20;;;16.60;99.90;;;;;;4349530;33;20141;-64
2021/10/14 11:18:19;;;;;;;56.67;52.30;;;16.50;99.90;;;;;;4349048;33;20656;-64
2021/10/14 11:20:52;;;;;;;53.77;50.17;;;16.50;99.90;;;;;;4349456;33;20138;-64
2021/10/14 11:23:23;;;;;;;50.00;46.77;;;16.90;99.90;;;;;;4347758;33;20154;-64
2021/10/14 11:26:09;;;;;;;54.63;50.83;;;17.00;99.90;;;;;;4347764;33;20465;-64
2021/10/14 11:28:59;;;;;;;51.73;48.83;;;17.00;99.90;;;;;;4347420;33;20589;-64
2021/10/14 11:31:30;;;;;;;51.10;47.90;;;17.00;99.90;;;;;;4349111;33;20163;-64
2021/10/14 11:34:08;;;;;;;46.10;43.20;;;16.90;99.90;;;;;;4345868;33;20149;-64
2021/10/14 11:36:38;;;;;;;50.50;47.40;;;16.50;99.90;;;;;;4340663;33;20175;-63
2021/10/14 11:39:19;;;;;;;48.00;45.20;;;16.20;99.90;;;;;;4340078;33;20194;-63
2021/10/14 11:41:56;;;;;;;47.67;44.83;;;16.00;99.90;;;;;;4339861;33;20149;-63
2021/10/14 11:44:26;;;;;;;49.93;46.47;;;16.00;99.90;;;;;;4341415;33;20153;-63
2021/10/14 11:46:53;;;;;;;53.63;49.77;;;15.90;99.90;;;;;;4340297;33;20145;-64
2021/10/14 11:49:31;;;;;;;57.60;53.40;;;15.80;99.90;;;;;;4340291;33;20157;-64
2021/10/14 11:52:02;;;;;;;58.30;53.97;;;15.60;99.90;;;;;;4340906;33;20157;-64
2021/10/14 11:54:35;;;;;;;56.80;52.83;;;15.50;99.90;;;;;;4338569;33;20154;-64
2021/10/14 11:57:06;;;;;;;55.07;51.00;;;15.40;99.90;;;;;;4340275;32;20153;-64
2021/10/14 11:59:38;;;;;;;62.30;57.40;;;15.30;99.90;;;;;;4339104;33;20169;-64
2021/10/14 12:02:09;;;;;;;64.67;60.10;;;15.20;99.90;;;;;;4340233;33;20179;-63
2021/10/14 12:04:43;;;;;;;65.83;61.20;;;15.20;99.90;;;;;;4338573;33;20331;-64
2021/10/14 12:07:18;;;;;;;64.27;59.47;;;15.20;99.90;;;;;;4337990;33;20230;-64
2021/10/14 12:09:48;;;;;;;67.43;62.53;;;15.30;99.90;;;;;;4338927;33;20171;-64
2021/10/14 12:12:18;;;;;;;61.63;57.17;;;15.50;99.90;;;;;;4336450;33;20247;-64
2021/10/14 12:14:46;;;;;;;64.63;59.77;;;15.60;99.90;;;;;;4342474;33;20168;-64
2021/10/14 12:17:15;;;;;;;62.60;58.10;;;15.60;99.90;;;;;;4343517;33;20146;-64
2021/10/14 12:19:45;;;;;;;60.80;55.87;;;15.60;99.90;;;;;;4342948;33;20489;-64
2021/10/14 12:22:14;;;;;;;59.60;54.97;;;15.60;99.90;;;;;;4336222;33;20200;-64
2021/10/14 12:24:57;;;;;;;60.17;55.60;;;15.50;99.90;;;;;;4343443;33;20215;-64
2021/10/14 12:27:28;;;;;;;61.43;56.77;;;15.60;99.90;;;;;;4336457;33;20162;-64